createdAt,value
2017-12-22T00:01:02.311Z,101358.75
2017-12-22T00:03:28.537Z,101352.25
2017-12-22T00:05:54.717Z,101344.15
2017-12-22T00:08:20.884Z,101345.27
2017-12-22T00:10:47.128Z,101350.91
2017-12-22T00:13:13.419Z,101350.86
2017-12-22T00:15:39.623Z,101354.38
2017-12-22T00:18:05.861Z,101358.38
2017-12-22T00:20:32.045Z,101354.58
2017-12-22T00:22:58.334Z,101349.41
2017-12-22T00:25:24.564Z,101353.95
2017-12-22T00:27:50.744Z,101349.78
2017-12-22T00:30:17.036Z,101352.86
2017-12-22T00:32:43.274Z,101351.23
2017-12-22T00:35:09.466Z,101349.41
2017-12-22T00:37:35.672Z,101352.44
2017-12-22T00:40:01.890Z,101353.55
2017-12-22T00:42:28.074Z,101351.14
2017-12-22T00:44:54.257Z,101341.69
2017-12-22T00:47:20.469Z,101345.20
2017-12-22T00:49:46.647Z,101338.74
2017-12-22T00:52:12.871Z,101342.77
2017-12-22T00:54:39.163Z,101342.83
2017-12-22T00:57:05.427Z,101340.63
2017-12-22T00:59:31.896Z,101334.64
2017-12-22T01:01:58.318Z,101329.97
2017-12-22T01:04:24.756Z,101330.67
2017-12-22T01:06:51.521Z,101334.74
2017-12-22T01:09:18.231Z,101340.92
2017-12-22T01:11:45.003Z,101343.91
2017-12-22T01:14:11.855Z,101347.89
2017-12-22T01:16:38.306Z,101341.77
2017-12-22T01:19:04.670Z,101336.89
2017-12-22T01:21:30.873Z,101327.26
2017-12-22T01:23:57.099Z,101323.39
2017-12-22T01:26:23.279Z,101320.26
2017-12-22T01:28:49.477Z,101316.75
2017-12-22T01:31:15.736Z,101314.99
2017-12-22T01:33:41.933Z,101317.34
2017-12-22T01:36:08.125Z,101319.84
2017-12-22T01:38:34.366Z,101323.00
2017-12-22T01:41:00.585Z,101323.29
2017-12-22T01:43:26.766Z,101325.30
2017-12-22T01:45:53.002Z,101318.48
2017-12-22T01:48:19.189Z,101315.15
2017-12-22T01:50:45.378Z,101316.66
2017-12-22T01:53:11.607Z,101302.08
2017-12-22T01:55:37.784Z,101307.83
2017-12-22T01:58:03.968Z,101301.24
2017-12-22T02:00:30.227Z,101300.45
2017-12-22T02:02:56.412Z,101299.88
2017-12-22T02:05:22.599Z,101288.98
2017-12-22T02:07:48.829Z,101291.66
2017-12-22T02:10:15.018Z,101291.20
2017-12-22T02:12:41.210Z,101292.19
2017-12-22T02:15:07.433Z,101293.11
2017-12-22T02:17:33.728Z,101290.03
2017-12-22T02:19:59.920Z,101291.34
2017-12-22T02:22:26.212Z,101295.09
2017-12-22T02:24:52.388Z,101291.45
2017-12-22T02:27:18.568Z,101284.59
2017-12-22T02:29:44.809Z,101287.11
2017-12-22T02:32:11.116Z,101279.59
2017-12-22T02:34:37.313Z,101282.72
2017-12-22T02:37:03.567Z,101277.67
2017-12-22T02:39:29.764Z,101281.23
2017-12-22T02:41:55.961Z,101279.59
2017-12-22T02:44:22.193Z,101278.42
2017-12-22T02:46:48.386Z,101284.55
2017-12-22T02:49:14.578Z,101284.31
2017-12-22T02:51:40.810Z,101288.84
2017-12-22T02:54:07.008Z,101287.82
2017-12-22T02:56:33.195Z,101295.76
2017-12-22T02:58:59.435Z,101295.63
2017-12-22T03:01:25.621Z,101294.16
2017-12-22T03:03:51.799Z,101291.28
2017-12-22T03:06:18.034Z,101290.02
2017-12-22T03:08:44.228Z,101286.59
2017-12-22T03:11:10.421Z,101288.98
2017-12-22T03:13:36.690Z,101290.77
2017-12-22T03:16:02.881Z,101287.77
2017-12-22T03:18:29.066Z,101298.32
2017-12-22T03:20:55.298Z,101294.22
2017-12-22T03:23:21.475Z,101294.41
2017-12-22T03:25:47.754Z,101289.64
2017-12-22T03:28:13.986Z,101276.70
2017-12-22T03:30:40.190Z,101273.38
2017-12-22T03:33:06.409Z,101276.47
2017-12-22T03:35:32.637Z,101283.23
2017-12-22T03:37:58.834Z,101283.89
2017-12-22T03:40:25.064Z,101292.14
2017-12-22T03:42:51.293Z,101285.83
2017-12-22T03:45:17.493Z,101289.47
2017-12-22T03:47:43.685Z,101289.38
2017-12-22T03:50:09.917Z,101288.44
2017-12-22T03:52:36.122Z,101279.42
2017-12-22T03:55:02.307Z,101284.31
2017-12-22T03:57:28.534Z,101286.24
2017-12-22T03:59:54.719Z,101277.52
2017-12-22T04:02:20.912Z,101273.81
2017-12-22T04:04:47.120Z,101265.55
2017-12-22T04:07:13.425Z,101262.98
2017-12-22T04:09:39.691Z,101259.98
2017-12-22T04:12:05.927Z,101263.86
2017-12-22T04:14:32.134Z,101265.27
2017-12-22T04:16:58.325Z,101260.97
2017-12-22T04:19:24.598Z,101261.44
2017-12-22T04:21:50.801Z,101262.55
2017-12-22T04:24:16.993Z,101262.55
2017-12-22T04:26:43.225Z,101267.66
2017-12-22T04:29:09.423Z,101259.88
2017-12-22T04:31:35.624Z,101259.92
2017-12-22T04:34:01.862Z,101256.69
2017-12-22T04:36:28.063Z,101259.25
2017-12-22T04:38:54.269Z,101262.59
2017-12-22T04:41:20.501Z,101267.41
2017-12-22T04:43:46.689Z,101264.45
2017-12-22T04:46:12.888Z,101259.45
2017-12-22T04:48:39.132Z,101258.44
2017-12-22T04:51:05.315Z,101255.32
2017-12-22T04:53:31.505Z,101245.88
2017-12-22T04:55:57.743Z,101259.79
2017-12-22T04:58:23.931Z,101258.99
2017-12-22T05:00:50.113Z,101265.37
2017-12-22T05:03:16.342Z,101260.44
2017-12-22T05:05:42.534Z,101255.95
2017-12-22T05:08:08.768Z,101245.95
2017-12-22T05:10:34.995Z,101262.41
2017-12-22T05:13:01.182Z,101263.87
2017-12-22T05:15:27.373Z,101260.06
2017-12-22T05:17:53.611Z,101258.75
2017-12-22T05:20:19.812Z,101256.77
2017-12-22T05:22:46.024Z,101253.16
2017-12-22T05:25:12.239Z,101252.89
2017-12-22T05:27:38.592Z,101253.95
2017-12-22T05:30:05.001Z,101262.20
2017-12-22T05:32:31.241Z,101257.78
2017-12-22T05:34:57.437Z,101254.75
2017-12-22T05:37:23.638Z,101255.50
2017-12-22T05:39:49.877Z,101250.62
2017-12-22T05:42:16.062Z,101255.04
2017-12-22T05:44:42.239Z,101256.98
2017-12-22T05:47:08.477Z,101251.13
2017-12-22T05:49:34.664Z,101238.34
2017-12-22T05:52:00.853Z,101259.69
2017-12-22T05:54:27.067Z,101246.71
2017-12-22T05:56:53.268Z,101254.37
2017-12-22T05:59:19.466Z,101246.45
2017-12-22T06:01:45.693Z,101241.27
2017-12-22T06:04:11.893Z,101247.22
2017-12-22T06:06:38.074Z,101246.32
2017-12-22T06:09:04.293Z,101247.70
2017-12-22T06:11:30.506Z,101247.48
2017-12-22T06:13:56.679Z,101238.25
2017-12-22T06:16:22.917Z,101241.52
2017-12-22T06:18:49.097Z,101250.34
2017-12-22T06:21:15.275Z,101250.16
2017-12-22T06:23:41.501Z,101247.78
2017-12-22T06:26:07.694Z,101249.22
2017-12-22T06:28:33.885Z,101250.35
2017-12-22T06:31:00.118Z,101259.36
2017-12-22T06:33:26.304Z,101253.41
2017-12-22T06:35:52.575Z,101250.01
2017-12-22T06:38:18.817Z,101244.14
2017-12-22T06:40:45.081Z,101244.84
2017-12-22T06:43:11.264Z,101251.66
2017-12-22T06:45:37.477Z,101252.94
2017-12-22T06:48:03.654Z,101246.87
2017-12-22T06:50:29.918Z,101229.45
2017-12-22T06:52:56.382Z,101236.33
2017-12-22T06:55:23.027Z,101231.22
2017-12-22T06:57:49.456Z,101247.43
2017-12-22T07:00:15.923Z,101238.87
2017-12-22T07:02:42.534Z,101229.69
2017-12-22T07:05:09.167Z,101228.59
2017-12-22T07:07:35.602Z,101225.33
2017-12-22T07:10:02.245Z,101218.28
2017-12-22T07:12:28.972Z,101220.92
2017-12-22T07:14:55.728Z,101222.73
2017-12-22T07:17:22.401Z,101224.39
2017-12-22T07:19:49.043Z,101226.69
2017-12-22T07:22:16.424Z,101222.64
2017-12-22T07:24:43.510Z,101223.81
2017-12-22T07:27:09.738Z,101214.02
2017-12-22T07:29:36.377Z,101220.27
2017-12-22T07:32:02.558Z,101207.94
2017-12-22T07:34:28.753Z,101220.44
2017-12-22T07:36:56.506Z,101212.45
2017-12-22T07:39:52.676Z,101220.20
2017-12-22T07:42:20.414Z,101220.05
2017-12-22T07:44:48.156Z,101222.32
2017-12-22T07:47:15.743Z,101225.42
2017-12-22T07:49:43.364Z,101218.38
2017-12-22T07:52:10.960Z,101218.81
2017-12-22T07:54:38.532Z,101212.69
2017-12-22T07:57:06.141Z,101219.66
2017-12-22T07:59:33.695Z,101217.44
2017-12-22T08:02:01.265Z,101225.21
2017-12-22T08:04:28.935Z,101221.62
2017-12-22T08:06:56.501Z,101218.41
2017-12-22T08:09:24.086Z,101215.66
2017-12-22T08:11:51.683Z,101215.58
2017-12-22T08:14:19.269Z,101215.87
2017-12-22T08:16:46.854Z,101215.91
2017-12-22T08:19:14.473Z,101220.62
2017-12-22T08:21:42.028Z,101218.55
2017-12-22T08:24:09.586Z,101212.36
2017-12-22T08:26:37.216Z,101206.67
2017-12-22T08:29:04.803Z,101195.01
2017-12-22T08:31:32.401Z,101197.70
2017-12-22T08:34:00.019Z,101182.79
2017-12-22T08:36:27.609Z,101173.64
2017-12-22T08:38:55.202Z,101169.56
2017-12-22T08:41:22.806Z,101165.59
2017-12-22T08:43:50.388Z,101165.91
2017-12-22T08:46:17.964Z,101162.09
2017-12-22T08:48:45.595Z,101151.60
2017-12-22T08:51:13.176Z,101153.64
2017-12-22T08:53:40.735Z,101149.22
2017-12-22T08:56:08.364Z,101147.13
2017-12-22T08:58:35.942Z,101143.47
2017-12-22T09:01:03.517Z,101139.88
2017-12-22T09:03:31.117Z,101135.20
2017-12-22T09:05:58.747Z,101136.06
2017-12-22T09:08:26.321Z,101136.24
2017-12-22T09:10:53.960Z,101133.40
2017-12-22T09:13:21.616Z,101131.45
2017-12-22T09:15:49.199Z,101130.92
2017-12-22T09:18:16.766Z,101131.13
2017-12-22T09:20:44.529Z,101121.63
2017-12-22T09:23:12.122Z,101108.59
2017-12-22T09:25:39.694Z,101106.09
2017-12-22T09:28:07.324Z,101109.09
2017-12-22T09:30:34.893Z,101093.60
2017-12-22T09:33:02.486Z,101086.88
2017-12-22T09:35:30.104Z,101082.03
2017-12-22T09:37:57.665Z,101072.34
2017-12-22T09:40:25.232Z,101074.74
2017-12-22T09:42:52.871Z,101062.41
2017-12-22T09:45:20.592Z,101046.69
2017-12-22T09:47:48.228Z,101061.95
2017-12-22T09:50:15.859Z,101060.47
2017-12-22T09:52:46.225Z,101066.15
2017-12-22T09:55:16.138Z,101060.55
2017-12-22T09:57:45.675Z,101057.13
2017-12-22T10:00:14.826Z,101051.83
2017-12-22T10:02:44.042Z,101052.88
2017-12-22T10:05:13.253Z,101039.96
2017-12-22T10:07:42.395Z,101031.50
2017-12-22T10:10:11.425Z,101025.02
2017-12-22T10:12:40.375Z,101027.34
2017-12-22T10:15:10.190Z,101019.54
2017-12-22T10:17:40.035Z,101016.75
2017-12-22T10:20:09.377Z,101007.77
2017-12-22T10:22:38.764Z,100996.42
2017-12-22T10:25:08.720Z,101000.71
2017-12-22T10:27:38.636Z,101000.91
2017-12-22T10:30:07.838Z,100990.25
2017-12-22T10:32:38.405Z,100982.17
2017-12-22T10:35:08.093Z,100978.41
2017-12-22T10:37:38.563Z,100975.64
2017-12-22T10:40:08.802Z,100974.52
2017-12-22T10:42:39.356Z,100970.97
2017-12-22T10:45:07.088Z,100971.27
2017-12-22T10:47:34.682Z,100959.45
2017-12-22T10:50:02.475Z,100962.91
2017-12-22T10:52:30.076Z,100959.72
2017-12-22T10:54:57.680Z,100959.77
2017-12-22T10:57:25.293Z,100954.95
2017-12-22T10:59:52.897Z,100958.69
2017-12-22T11:02:20.481Z,100956.13
2017-12-22T11:04:48.059Z,100953.20
2017-12-22T11:07:15.657Z,100953.66
2017-12-22T11:09:43.243Z,100953.23
2017-12-22T11:12:10.805Z,100959.11
2017-12-22T11:14:38.372Z,100940.59
2017-12-22T11:17:05.964Z,100932.73
2017-12-22T11:19:33.565Z,100925.83
2017-12-22T11:22:01.141Z,100924.97
2017-12-22T11:24:28.801Z,100919.96
2017-12-22T11:26:56.406Z,100909.72
2017-12-22T11:29:24.001Z,100901.40
2017-12-22T11:31:51.583Z,100896.69
2017-12-22T11:34:19.188Z,100883.98
2017-12-22T11:36:46.766Z,100879.19
2017-12-22T11:39:14.470Z,100875.40
2017-12-22T11:41:42.080Z,100872.25
2017-12-22T11:44:09.666Z,100872.04
2017-12-22T11:46:37.322Z,100872.89
2017-12-22T11:49:04.938Z,100875.64
2017-12-22T11:51:32.541Z,100873.37
2017-12-22T11:54:00.126Z,100873.06
2017-12-22T11:56:27.715Z,100873.38
2017-12-22T11:58:55.279Z,100868.05
2017-12-22T12:01:22.900Z,100875.62
2017-12-22T12:03:50.521Z,100872.44
2017-12-22T12:06:18.111Z,100881.13
2017-12-22T12:08:45.713Z,100876.14
2017-12-22T12:11:13.321Z,100873.80
2017-12-22T12:13:40.909Z,100876.59
2017-12-22T12:16:08.485Z,100871.25
2017-12-22T12:18:36.143Z,100870.42
2017-12-22T12:21:03.732Z,100867.75
2017-12-22T12:23:31.314Z,100865.56
2017-12-22T12:25:59.015Z,100868.38
2017-12-22T12:28:26.595Z,100868.91
2017-12-22T12:30:54.169Z,100862.47
2017-12-22T12:33:21.782Z,100865.94
2017-12-22T12:35:49.366Z,100861.74
2017-12-22T12:38:16.972Z,100866.48
2017-12-22T12:40:44.619Z,100864.34
2017-12-22T12:43:14.019Z,100853.27
2017-12-22T12:45:44.009Z,100854.23
2017-12-22T12:48:13.452Z,100849.86
2017-12-22T12:50:42.823Z,100841.50
2017-12-22T12:53:12.466Z,100836.25
2017-12-22T12:55:42.164Z,100847.48
2017-12-22T12:58:09.954Z,100858.02
2017-12-22T13:00:37.532Z,100867.05
2017-12-22T13:03:05.174Z,100867.16
2017-12-22T13:05:32.807Z,100867.33
2017-12-22T13:08:00.383Z,100863.16
2017-12-22T13:10:28.012Z,100862.38
2017-12-22T13:12:55.601Z,100861.10
2017-12-22T13:15:23.196Z,100851.23
2017-12-22T13:17:50.806Z,100846.70
2017-12-22T13:20:18.390Z,100848.10
2017-12-22T13:22:46.023Z,100845.93
2017-12-22T13:25:13.635Z,100839.75
2017-12-22T13:27:41.205Z,100827.05
2017-12-22T13:30:08.781Z,100822.36
2017-12-22T13:32:36.376Z,100825.67
2017-12-22T13:35:03.932Z,100826.75
2017-12-22T13:37:31.538Z,100827.02
2017-12-22T13:39:59.134Z,100833.51
2017-12-22T13:42:26.692Z,100837.60
2017-12-22T13:44:54.250Z,100825.55
2017-12-22T13:47:21.866Z,100832.73
2017-12-22T13:49:49.458Z,100841.49
2017-12-22T13:52:17.031Z,100850.17
2017-12-22T13:54:44.635Z,100846.06
2017-12-22T13:57:12.207Z,100844.13
2017-12-22T13:59:39.768Z,100837.63
2017-12-22T14:02:07.373Z,100836.73
2017-12-22T14:04:34.943Z,100828.07
2017-12-22T14:07:02.501Z,100830.69
2017-12-22T14:09:30.111Z,100830.76
2017-12-22T14:11:57.706Z,100836.73
2017-12-22T14:14:25.278Z,100830.18
2017-12-22T14:16:53.871Z,100835.67
2017-12-22T14:19:25.102Z,100840.61
2017-12-22T14:21:56.376Z,100835.95
2017-12-22T14:24:25.381Z,100829.45
2017-12-22T14:26:56.943Z,100823.22
2017-12-22T14:29:28.625Z,100823.26
2017-12-22T14:31:56.417Z,100825.09
2017-12-22T14:34:24.009Z,100818.84
2017-12-22T14:36:51.598Z,100821.17
2017-12-22T14:39:19.530Z,100816.05
2017-12-22T14:41:47.146Z,100822.66
2017-12-22T14:44:17.485Z,100816.53
2017-12-22T14:46:45.053Z,100817.55
2017-12-22T14:49:14.183Z,100813.92
2017-12-22T14:51:45.299Z,100821.52
2017-12-22T14:54:13.186Z,100814.50
2017-12-22T14:56:40.747Z,100823.51
2017-12-22T14:59:08.364Z,100824.53
2017-12-22T15:01:35.978Z,100814.94
2017-12-22T15:04:03.591Z,100818.51
2017-12-22T15:06:31.192Z,100814.23
2017-12-22T15:08:58.845Z,100821.58
2017-12-22T15:11:26.411Z,100820.44
2017-12-22T15:13:54.024Z,100818.56
2017-12-22T15:16:21.608Z,100809.87
2017-12-22T15:18:49.157Z,100813.27
2017-12-22T15:21:16.745Z,100818.88
2017-12-22T15:23:44.346Z,100816.95
2017-12-22T15:26:11.921Z,100820.50
2017-12-22T15:28:39.536Z,100822.08
2017-12-22T15:31:07.109Z,100820.16
2017-12-22T15:33:34.693Z,100813.63
2017-12-22T15:36:02.309Z,100813.31
2017-12-22T15:38:29.867Z,100817.91
2017-12-22T15:40:57.450Z,100826.59
2017-12-22T15:43:25.064Z,100819.34
2017-12-22T15:45:52.639Z,100825.14
2017-12-22T15:48:20.197Z,100822.33
2017-12-22T15:50:47.787Z,100818.99
2017-12-22T15:53:15.364Z,100819.63
2017-12-22T15:55:42.958Z,100829.45
2017-12-22T15:58:10.562Z,100822.20
2017-12-22T16:00:38.229Z,100819.58
2017-12-22T16:03:05.813Z,100821.49
2017-12-22T16:05:33.439Z,100819.54
2017-12-22T16:08:01.024Z,100813.97
2017-12-22T16:10:28.618Z,100814.63
2017-12-22T16:12:56.246Z,100812.36
2017-12-22T16:15:23.833Z,100812.66
2017-12-22T16:17:51.391Z,100809.11
2017-12-22T16:20:18.987Z,100806.14
2017-12-22T16:22:46.542Z,100807.45
2017-12-22T16:25:14.134Z,100807.52
2017-12-22T16:27:42.840Z,100811.39
2017-12-22T16:30:10.455Z,100809.13
2017-12-22T16:32:38.205Z,100808.45
2017-12-22T16:35:05.810Z,100799.23
2017-12-22T16:37:33.573Z,100797.62
2017-12-22T16:40:01.181Z,100800.93
2017-12-22T16:42:28.893Z,100795.95
2017-12-22T16:44:56.586Z,100800.05
2017-12-22T16:47:24.205Z,100799.22
2017-12-22T16:49:51.880Z,100796.20
2017-12-22T16:52:19.524Z,100800.22
2017-12-22T16:54:47.123Z,100794.81
2017-12-22T16:57:14.750Z,100791.83
2017-12-22T16:59:42.539Z,100792.02
2017-12-22T17:02:10.166Z,100791.11
2017-12-22T17:04:38.123Z,100789.67
2017-12-22T17:07:05.730Z,100787.70
2017-12-22T17:09:33.569Z,100784.03
2017-12-22T17:12:01.213Z,100785.13
2017-12-22T17:14:28.845Z,100788.42
2017-12-22T17:16:56.550Z,100790.91
2017-12-22T17:19:24.182Z,100792.58
2017-12-22T17:21:52.111Z,100781.15
2017-12-22T17:24:19.734Z,100790.91
2017-12-22T17:26:47.350Z,100797.47
2017-12-22T17:29:14.942Z,100798.05
2017-12-22T17:31:42.515Z,100805.66
2017-12-22T17:34:10.154Z,100800.92
2017-12-22T17:36:37.731Z,100803.02
2017-12-22T17:39:05.295Z,100796.64
2017-12-22T17:41:32.890Z,100786.77
2017-12-22T17:44:00.446Z,100782.23
2017-12-22T17:46:28.022Z,100785.33
2017-12-22T17:48:55.629Z,100777.47
2017-12-22T17:51:23.213Z,100776.33
2017-12-22T17:53:50.791Z,100775.41
2017-12-22T17:56:18.407Z,100780.80
2017-12-22T17:58:45.982Z,100784.42
2017-12-22T18:01:13.608Z,100785.16
2017-12-22T18:03:41.252Z,100785.73
2017-12-22T18:06:08.828Z,100786.49
2017-12-22T18:08:36.415Z,100785.58
2017-12-22T18:11:04.022Z,100787.52
2017-12-22T18:13:31.603Z,100789.25
2017-12-22T18:15:59.161Z,100793.63
2017-12-22T18:18:26.766Z,100787.80
2017-12-22T18:20:54.415Z,100790.42
2017-12-22T18:23:23.491Z,100791.77
2017-12-22T18:25:52.831Z,100791.98
2017-12-22T18:28:22.844Z,100794.22
2017-12-22T18:30:51.992Z,100800.34
2017-12-22T18:33:22.234Z,100784.63
2017-12-22T18:35:49.915Z,100794.75
2017-12-22T18:38:17.507Z,100792.84
2017-12-22T18:40:45.117Z,100793.74
2017-12-22T18:43:12.675Z,100803.12
2017-12-22T18:45:40.261Z,100793.53
2017-12-22T18:48:07.886Z,100793.69
2017-12-22T18:50:35.456Z,100798.70
2017-12-22T18:53:03.713Z,100798.55
2017-12-22T18:55:32.397Z,100803.47
2017-12-22T18:58:01.731Z,100802.69
2017-12-22T19:00:30.392Z,100807.41
2017-12-22T19:02:59.413Z,100805.63
2017-12-22T19:05:28.019Z,100796.91
2017-12-22T19:07:56.460Z,100792.75
2017-12-22T19:10:24.122Z,100799.64
2017-12-22T19:12:51.734Z,100801.84
2017-12-22T19:15:19.319Z,100795.16
2017-12-22T19:17:47.005Z,100797.44
2017-12-22T19:20:14.818Z,100791.44
2017-12-22T19:22:42.407Z,100795.65
2017-12-22T19:25:10.018Z,100787.80
2017-12-22T19:27:37.604Z,100794.54
2017-12-22T19:30:05.177Z,100788.30
2017-12-22T19:32:32.790Z,100793.59
2017-12-22T19:35:00.359Z,100785.00
2017-12-22T19:37:27.998Z,100785.14
2017-12-22T19:39:55.596Z,100785.94
2017-12-22T19:42:23.163Z,100786.42
2017-12-22T19:44:50.747Z,100769.06
2017-12-22T19:47:18.374Z,100771.78
2017-12-22T19:49:46.027Z,100774.71
2017-12-22T19:52:13.620Z,100775.79
2017-12-22T19:54:41.475Z,100781.67
2017-12-22T19:57:09.054Z,100780.95
2017-12-22T19:59:36.617Z,100777.59
2017-12-22T20:02:04.258Z,100787.53
2017-12-22T20:04:32.029Z,100781.09
2017-12-22T20:06:59.652Z,100778.69
2017-12-22T20:09:27.558Z,100780.30
2017-12-22T20:11:55.133Z,100779.96
2017-12-22T20:14:22.911Z,100778.15
2017-12-22T20:16:50.579Z,100770.80
2017-12-22T20:19:18.143Z,100761.73
2017-12-22T20:21:45.724Z,100770.15
2017-12-22T20:24:13.517Z,100765.49
2017-12-22T20:26:41.075Z,100764.03
2017-12-22T20:29:08.694Z,100758.42
2017-12-22T20:31:36.364Z,100755.67
2017-12-22T20:34:03.982Z,100753.34
2017-12-22T20:36:31.559Z,100753.94
2017-12-22T20:38:59.172Z,100759.75
2017-12-22T20:41:26.734Z,100757.12
2017-12-22T20:43:54.314Z,100761.84
2017-12-22T20:46:21.913Z,100754.44
2017-12-22T20:48:49.489Z,100754.20
2017-12-22T20:51:17.065Z,100755.23
2017-12-22T20:53:44.694Z,100753.73
2017-12-22T20:56:12.263Z,100751.58
2017-12-22T20:58:42.666Z,100749.09
2017-12-22T21:01:12.079Z,100734.88
2017-12-22T21:03:39.727Z,100735.72
2017-12-22T21:06:07.293Z,100734.98
2017-12-22T21:08:34.906Z,100731.41
2017-12-22T21:11:02.475Z,100726.95
2017-12-22T21:13:30.048Z,100728.10
2017-12-22T21:15:57.641Z,100730.95
2017-12-22T21:18:25.206Z,100732.52
2017-12-22T21:20:52.771Z,100732.52
2017-12-22T21:23:20.370Z,100726.20
2017-12-22T21:25:47.928Z,100733.64
2017-12-22T21:28:15.497Z,100726.54
2017-12-22T21:30:43.113Z,100726.64
2017-12-22T21:33:10.689Z,100720.19
2017-12-22T21:35:38.261Z,100708.67
2017-12-22T21:38:05.868Z,100703.70
2017-12-22T21:40:33.441Z,100699.05
2017-12-22T21:43:01.083Z,100698.47
2017-12-22T21:45:28.704Z,100689.84
2017-12-22T21:47:56.271Z,100690.94
2017-12-22T21:50:23.855Z,100684.16
2017-12-22T21:52:51.451Z,100678.12
2017-12-22T21:55:19.035Z,100674.30
2017-12-22T21:57:46.673Z,100670.64
2017-12-22T22:00:14.366Z,100673.10
2017-12-22T22:02:41.942Z,100664.86
2017-12-22T22:05:09.520Z,100661.50
2017-12-22T22:07:37.117Z,100662.39
2017-12-22T22:10:04.688Z,100664.92
2017-12-22T22:12:32.238Z,100659.11
2017-12-22T22:14:59.841Z,100659.95
2017-12-22T22:17:27.402Z,100654.28
2017-12-22T22:19:54.989Z,100648.00
2017-12-22T22:22:22.580Z,100648.25
2017-12-22T22:24:50.151Z,100642.31
2017-12-22T22:27:17.704Z,100642.31
2017-12-22T22:29:45.305Z,100641.26
2017-12-22T22:32:12.863Z,100639.38
2017-12-22T22:34:40.447Z,100638.05
2017-12-22T22:37:08.074Z,100630.77
2017-12-22T22:39:35.639Z,100634.97
2017-12-22T22:42:03.206Z,100625.57
2017-12-22T22:44:30.838Z,100623.36
2017-12-22T22:46:58.413Z,100624.69
2017-12-22T22:49:25.986Z,100624.75
2017-12-22T22:51:53.601Z,100616.68
2017-12-22T22:54:21.185Z,100616.39
2017-12-22T22:56:48.775Z,100611.08
2017-12-22T22:59:16.395Z,100610.28
2017-12-22T23:01:43.986Z,100613.87
2017-12-22T23:04:11.642Z,100617.17
2017-12-22T23:06:39.228Z,100608.07
2017-12-22T23:09:06.830Z,100605.50
2017-12-22T23:11:34.450Z,100601.05
2017-12-22T23:14:02.052Z,100601.33
2017-12-22T23:16:29.627Z,100599.05
2017-12-22T23:18:57.199Z,100599.47
2017-12-22T23:21:24.801Z,100591.75
2017-12-22T23:23:52.368Z,100592.16
2017-12-22T23:26:19.958Z,100586.20
2017-12-22T23:28:47.579Z,100583.98
2017-12-22T23:31:15.139Z,100577.53
2017-12-22T23:33:42.710Z,100575.35
2017-12-22T23:36:10.346Z,100569.10
2017-12-22T23:38:37.925Z,100567.08
2017-12-22T23:41:05.573Z,100566.19
2017-12-22T23:43:33.212Z,100554.96
2017-12-22T23:46:00.816Z,100555.31
2017-12-22T23:48:28.517Z,100549.13
2017-12-22T23:50:56.181Z,100550.38
2017-12-22T23:53:23.768Z,100549.81
2017-12-22T23:55:51.361Z,100554.83
2017-12-22T23:58:18.975Z,100561.66
